Time;durP1;ratioP1;P1;durP2;ratioP2;P2;SDS_P1;SDS_P2;PMS_P1;PMS_P2;Temp;Humidity;BMP_temperature;BMP_pressure;BME280_temperature;BME280_humidity;BME280_pressure;Samples;Min_cycle;Max_cycle;Signal;HPM_P1;HPM_P2
2022/08/27 00:00:17;;;;;;;;;;;17.80;99.90;;;;;;5092946;28;20519;-48
2022/08/27 00:02:44;;;;;;;9.00;6.47;;;17.80;99.90;;;;;;5092745;28;19919;-48
2022/08/27 00:05:12;;;;;;;;;;;17.80;99.90;;;;;;5092615;28;20040;-49
2022/08/27 00:07:39;;;;;;;11.57;6.70;;;17.70;99.90;;;;;;5092205;28;19919;-48
2022/08/27 00:10:09;;;;;;;11.48;7.18;;;17.80;99.90;;;;;;5092476;28;20044;-48
2022/08/27 00:12:37;;;;;;;8.55;5.97;;;17.70;99.90;;;;;;5093222;28;20492;-47
2022/08/27 00:15:05;;;;;;;9.68;6.38;;;17.70;99.90;;;;;;5088266;28;20045;-47
2022/08/27 00:17:32;;;;;;;9.35;6.75;;;17.70;99.90;;;;;;5085492;28;20040;-47
2022/08/27 00:19:59;;;;;;;9.73;6.95;;;17.70;99.90;;;;;;5093105;28;20040;-47
2022/08/27 00:22:26;;;;;;;8.85;6.40;;;17.60;99.90;;;;;;5093725;28;20043;-48
2022/08/27 00:24:53;;;;;;;12.60;7.25;;;17.60;99.90;;;;;;5081881;28;20040;-47
2022/08/27 00:27:19;;;;;;;8.68;6.95;;;17.60;99.90;;;;;;5093421;28;20040;-47
2022/08/27 00:29:47;;;;;;;9.20;5.60;;;17.60;99.90;;;;;;5093150;28;20044;-49
2022/08/27 00:32:14;;;;;;;;;;;17.50;99.90;;;;;;5093056;28;20044;-46
2022/08/27 00:34:41;;;;;;;12.75;6.30;;;17.50;99.90;;;;;;5091192;28;19924;-47
2022/08/27 00:37:08;;;;;;;13.65;5.97;;;17.50;99.90;;;;;;5093293;28;20081;-48
2022/08/27 00:39:35;;;;;;;9.13;7.00;;;17.40;99.90;;;;;;5092767;28;20036;-49
2022/08/27 00:42:06;;;;;;;9.25;6.30;;;17.40;99.90;;;;;;5093334;28;20385;-47
2022/08/27 00:44:33;;;;;;;10.88;6.10;;;17.40;99.90;;;;;;5089507;28;20048;-46
2022/08/27 00:47:04;;;;;;;9.63;6.13;;;17.30;99.90;;;;;;5084731;28;20032;-47
2022/08/27 00:49:43;;;;;;;9.65;6.68;;;17.30;99.90;;;;;;5084706;28;20055;-48
2022/08/27 00:52:15;;;;;;;9.02;6.55;;;17.30;99.90;;;;;;5092917;28;20044;-47
2022/08/27 00:54:42;;;;;;;9.35;6.22;;;17.30;99.90;;;;;;5092494;28;20056;-47
2022/08/27 00:57:09;;;;;;;7.57;6.15;;;17.30;99.90;;;;;;5087279;28;20093;-47
2022/08/27 00:59:35;;;;;;;9.90;6.10;;;17.40;99.90;;;;;;5085287;28;20036;-47
2022/08/27 01:02:17;;;;;;;8.75;5.97;;;17.40;99.90;;;;;;5084270;28;20044;-49
2022/08/27 01:05:07;;;;;;;8.68;5.78;;;17.40;99.90;;;;;;5085774;28;20488;-49
2022/08/27 01:07:38;;;;;;;7.57;6.10;;;17.40;99.90;;;;;;5071413;28;20408;-47
2022/08/27 01:10:09;;;;;;;9.27;5.32;;;17.40;99.90;;;;;;5072369;28;20754;-47
2022/08/27 01:12:37;;;;;;;7.90;4.63;;;17.40;99.90;;;;;;5089739;28;20048;-47
2022/08/27 01:15:08;;;;;;;5.30;4.75;;;17.40;99.90;;;;;;5091025;28;20051;-46
2022/08/27 01:17:39;;;;;;;6.80;5.05;;;17.20;99.90;;;;;;5092563;28;20089;-46
2022/08/27 01:20:12;;;;;;;7.10;5.28;;;17.00;99.90;;;;;;5092620;28;20519;-47
2022/08/27 01:23:01;;;;;;;5.88;4.32;;;17.00;99.90;;;;;;5090531;28;20652;-46
2022/08/27 01:25:28;;;;;;;;;;;16.90;99.90;;;;;;5091299;28;20488;-47
2022/08/27 01:27:59;;;;;;;6.80;4.45;;;16.80;99.90;;;;;;5090874;28;20295;-48
2022/08/27 01:30:26;;;;;;;10.32;4.80;;;16.80;99.90;;;;;;5092257;28;20067;-49
2022/08/27 01:32:53;;;;;;;;;;;16.80;99.90;;;;;;5090968;28;20492;-47
2022/08/27 01:35:22;;;;;;;5.43;4.38;;;16.80;99.90;;;;;;5091800;28;19920;-47
2022/08/27 01:37:52;;;;;;;5.88;4.60;;;16.70;99.90;;;;;;5091342;28;20054;-48
2022/08/27 01:40:22;;;;;;;5.55;4.15;;;16.50;99.90;;;;;;5091931;28;20054;-48
2022/08/27 01:42:53;;;;;;;5.45;4.55;;;16.70;99.90;;;;;;5091597;28;20044;-47
2022/08/27 01:45:27;;;;;;;5.82;4.28;;;16.70;99.90;;;;;;5090478;28;20093;-47
2022/08/27 01:47:54;;;;;;;6.72;4.47;;;16.70;99.90;;;;;;5091931;28;20125;-48
2022/08/27 01:50:22;;;;;;;;;;;16.70;99.90;;;;;;5088606;28;20056;-48
2022/08/27 01:52:50;;;;;;;6.25;4.18;;;16.70;99.90;;;;;;5091667;28;19927;-49
2022/08/27 01:55:20;;;;;;;5.72;4.25;;;16.70;99.90;;;;;;5090504;28;20048;-48
2022/08/27 01:57:48;;;;;;;4.30;3.90;;;16.70;99.90;;;;;;5090157;28;20427;-49
2022/08/27 02:00:30;;;;;;;4.43;3.75;;;16.80;99.90;;;;;;5085923;28;20040;-49
2022/08/27 02:02:58;;;;;;;5.00;4.10;;;16.80;99.90;;;;;;5091779;28;20070;-47
2022/08/27 02:05:27;;;;;;;6.25;3.72;;;16.80;99.90;;;;;;5090913;28;20484;-48
2022/08/27 02:07:54;;;;;;;5.82;3.72;;;16.80;99.90;;;;;;5090289;28;20040;-48
2022/08/27 02:10:30;;;;;;;5.43;3.72;;;16.80;99.90;;;;;;5091599;28;20504;-48
2022/08/27 02:12:56;;;;;;;5.43;4.30;;;16.80;99.90;;;;;;5090948;28;20051;-48
2022/08/27 02:15:24;;;;;;;4.75;3.95;;;16.80;99.90;;;;;;5090195;28;20051;-47
2022/08/27 02:17:51;;;;;;;3.95;3.55;;;16.80;99.90;;;;;;5091383;28;20056;-48
2022/08/27 02:20:19;;;;;;;6.88;3.95;;;16.80;99.90;;;;;;5085333;28;20381;-48
2022/08/27 02:22:46;;;;;;;4.30;3.35;;;16.70;99.90;;;;;;5091124;28;20032;-49
2022/08/27 02:25:15;;;;;;;4.25;3.40;;;16.80;99.90;;;;;;5089472;28;20059;-50
2022/08/27 02:27:42;;;;;;;4.32;3.53;;;16.70;99.90;;;;;;5090706;28;20059;-48
2022/08/27 02:30:14;;;;;;;5.15;4.10;;;16.80;99.90;;;;;;5091075;28;20380;-47
2022/08/27 02:32:41;;;;;;;3.97;3.58;;;16.80;99.90;;;;;;5090548;28;20040;-50
2022/08/27 02:35:08;;;;;;;5.15;3.88;;;16.80;99.90;;;;;;5090033;28;20032;-48
2022/08/27 02:37:36;;;;;;;5.03;3.17;;;16.80;99.90;;;;;;5091271;28;20055;-48
2022/08/27 02:40:06;;;;;;;4.75;3.58;;;16.80;99.90;;;;;;5090886;28;20126;-47
2022/08/27 02:42:33;;;;;;;6.13;3.78;;;16.80;99.90;;;;;;5091481;28;20503;-49
2022/08/27 02:45:00;;;;;;;4.75;3.85;;;16.70;99.90;;;;;;5090489;28;20081;-48
2022/08/27 02:47:27;;;;;;;4.18;3.50;;;16.70;99.90;;;;;;5090185;28;20093;-48
2022/08/27 02:49:54;;;;;;;5.22;3.55;;;16.70;99.90;;;;;;5091087;28;20044;-49
2022/08/27 02:52:21;;;;;;;6.13;3.97;;;16.70;99.90;;;;;;5091323;28;20051;-47
2022/08/27 02:54:51;;;;;;;5.43;3.92;;;16.70;99.90;;;;;;5082292;28;20067;-49
2022/08/27 02:57:18;;;;;;;6.15;3.58;;;16.70;99.90;;;;;;5095599;28;20451;-49
2022/08/27 02:59:44;;;;;;;6.15;3.60;;;16.70;99.90;;;;;;5095118;28;20044;-48
2022/08/27 03:02:11;;;;;;;5.53;3.67;;;16.70;99.90;;;;;;5094103;28;20044;-48
2022/08/27 03:04:38;;;;;;;5.68;4.05;;;16.70;99.90;;;;;;5094938;28;20434;-51
2022/08/27 03:07:05;;;;;;;4.32;3.60;;;16.70;99.90;;;;;;5094652;28;20044;-48
2022/08/27 03:09:33;;;;;;;3.90;3.20;;;16.70;99.90;;;;;;5094976;28;20070;-49
2022/08/27 03:12:00;;;;;;;4.55;3.67;;;16.70;99.90;;;;;;5094468;28;20040;-48
2022/08/27 03:14:27;;;;;;;4.97;4.35;;;16.70;99.90;;;;;;5094474;28;20115;-48
2022/08/27 03:16:54;;;;;;;6.78;3.88;;;16.70;99.90;;;;;;5094936;28;20059;-48
2022/08/27 03:19:21;;;;;;;4.55;3.28;;;16.70;99.90;;;;;;5095053;28;20070;-48
2022/08/27 03:21:49;;;;;;;5.18;3.83;;;16.70;99.90;;;;;;5091709;28;20032;-50
2022/08/27 03:24:20;;;;;;;4.03;3.53;;;16.70;99.90;;;;;;5093238;28;20040;-49
2022/08/27 03:26:48;;;;;;;5.40;3.95;;;16.80;99.90;;;;;;5076933;28;20404;-47
2022/08/27 03:29:19;;;;;;;7.07;4.07;;;16.80;99.90;;;;;;5094621;28;20072;-48
2022/08/27 03:31:46;;;;;;;5.75;3.88;;;16.80;99.90;;;;;;5094678;28;20124;-50
2022/08/27 03:34:13;;;;;;;6.00;4.07;;;16.80;99.90;;;;;;5092090;28;20504;-48
2022/08/27 03:36:47;;;;;;;5.68;4.30;;;16.80;99.90;;;;;;5094950;28;20040;-48
2022/08/27 03:39:14;;;;;;;5.13;3.28;;;16.90;99.90;;;;;;5094462;28;20395;-48
2022/08/27 03:41:40;;;;;;;6.18;4.20;;;16.80;99.90;;;;;;5103991;22;20040;-50
2022/08/27 03:44:22;;;;;;;6.00;4.35;;;16.90;99.90;;;;;;5090324;28;20044;-50
2022/08/27 03:46:51;;;;;;;7.55;4.68;;;16.90;99.90;;;;;;5094437;28;20500;-50
2022/08/27 03:49:19;;;;;;;5.28;4.45;;;16.90;99.90;;;;;;5092745;28;20040;-49
2022/08/27 03:51:49;;;;;;;5.63;4.72;;;17.00;99.90;;;;;;5094388;28;20078;-49
2022/08/27 03:54:16;;;;;;;7.22;4.95;;;17.00;99.90;;;;;;5106869;27;20035;-48
2022/08/27 03:56:42;;;;;;;7.72;5.28;;;17.00;99.90;;;;;;5118107;27;20085;-48
2022/08/27 03:59:09;;;;;;;7.85;5.18;;;17.00;99.90;;;;;;5114599;28;20055;-50
2022/08/27 04:01:36;;;;;;;6.20;4.82;;;17.00;99.90;;;;;;5113732;28;20507;-50
2022/08/27 04:04:03;;;;;;;6.57;4.18;;;17.00;99.90;;;;;;5095730;28;20086;-49
2022/08/27 04:06:29;;;;;;;6.15;4.30;;;16.90;99.90;;;;;;5107154;27;20104;-49
2022/08/27 04:08:56;;;;;;;5.53;4.25;;;17.00;99.90;;;;;;5102416;27;20111;-49
2022/08/27 04:11:23;;;;;;;6.18;4.47;;;16.90;99.90;;;;;;5106097;28;20043;-49
2022/08/27 04:13:50;;;;;;;5.25;4.35;;;16.90;99.90;;;;;;5104176;27;20047;-49
2022/08/27 04:16:17;;;;;;;4.75;3.95;;;16.80;99.90;;;;;;5113881;28;20039;-50
2022/08/27 04:18:44;;;;;;;9.88;3.95;;;16.90;99.90;;;;;;5113858;28;20043;-49
2022/08/27 04:21:12;;;;;;;10.48;4.38;;;16.80;99.90;;;;;;5109128;28;20044;-48
2022/08/27 04:23:40;;;;;;;5.57;4.72;;;16.80;99.90;;;;;;5113939;28;20039;-49
2022/08/27 04:26:09;;;;;;;5.65;4.40;;;16.80;99.90;;;;;;5113421;28;20035;-48
2022/08/27 04:28:37;;;;;;;7.45;4.50;;;16.60;99.90;;;;;;5111453;27;20048;-48
2022/08/27 04:31:06;;;;;;;6.50;4.25;;;16.70;99.90;;;;;;5113681;28;20100;-49
2022/08/27 04:33:43;;;;;;;6.43;4.43;;;16.70;99.90;;;;;;5113468;28;20051;-51
2022/08/27 04:36:17;;;;;;;5.50;4.65;;;16.70;99.90;;;;;;5106762;28;20105;-49
2022/08/27 04:38:43;;;;;;;7.25;4.70;;;16.70;99.90;;;;;;5114076;28;20143;-48
2022/08/27 04:41:20;;;;;;;7.45;5.07;;;16.70;99.90;;;;;;5113376;28;20514;-50
2022/08/27 04:43:57;;;;;;;5.40;4.27;;;16.70;99.90;;;;;;5112029;28;20122;-49
2022/08/27 04:46:29;;;;;;;7.47;4.82;;;16.60;99.90;;;;;;5112268;28;20031;-49
2022/08/27 04:48:59;;;;;;;9.25;5.05;;;16.60;99.90;;;;;;5113112;28;20035;-49
2022/08/27 04:51:27;;;;;;;5.57;4.65;;;16.60;99.90;;;;;;5113742;28;20047;-49
2022/08/27 04:53:55;;;;;;;7.65;4.75;;;16.60;99.90;;;;;;5105237;28;20059;-48
2022/08/27 04:56:26;;;;;;;5.32;4.05;;;16.60;99.90;;;;;;5112786;28;20052;-49
2022/08/27 04:58:53;;;;;;;5.70;4.53;;;16.60;99.90;;;;;;5112821;28;20051;-49
2022/08/27 05:01:23;;;;;;;5.78;4.65;;;16.60;99.90;;;;;;5105008;28;20051;-51
2022/08/27 05:03:50;;;;;;;5.75;4.50;;;16.60;99.90;;;;;;5112980;28;20043;-48
2022/08/27 05:06:17;;;;;;;;;;;16.70;99.90;;;;;;5112764;28;20039;-49
2022/08/27 05:08:44;;;;;;;5.50;4.30;;;16.70;99.90;;;;;;5113555;28;19927;-49
2022/08/27 05:11:13;;;;;;;5.78;4.45;;;16.70;99.90;;;;;;5104174;27;20522;-49
2022/08/27 05:13:44;;;;;;;5.55;4.22;;;16.80;99.90;;;;;;5112981;28;20073;-49
2022/08/27 05:16:14;;;;;;;5.00;4.00;;;16.70;99.90;;;;;;5113279;28;20050;-50
2022/08/27 05:18:41;;;;;;;5.85;4.50;;;16.80;99.90;;;;;;5107195;28;20078;-50
2022/08/27 05:21:19;;;;;;;5.32;4.55;;;16.80;99.90;;;;;;5111649;28;20097;-51
2022/08/27 05:23:46;;;;;;;6.32;4.15;;;16.90;99.90;;;;;;5112630;28;20035;-48
2022/08/27 05:26:14;;;;;;;5.20;4.30;;;16.90;99.90;;;;;;5112899;28;20409;-48
2022/08/27 05:28:41;;;;;;;4.43;3.75;;;17.00;99.90;;;;;;5108580;28;20036;-49
2022/08/27 05:31:10;;;;;;;6.18;4.22;;;17.10;99.90;;;;;;5110848;27;20549;-49
2022/08/27 05:33:38;;;;;;;4.60;3.85;;;17.10;99.90;;;;;;5109389;28;20047;-48
2022/08/27 05:36:06;;;;;;;6.30;4.55;;;17.20;99.90;;;;;;5111816;28;20047;-50
2022/08/27 05:38:33;;;;;;;4.97;3.95;;;17.30;99.90;;;;;;5110838;28;20036;-49
2022/08/27 05:41:09;;;;;;;8.07;4.30;;;17.40;99.90;;;;;;5112477;28;20041;-49
2022/08/27 05:43:38;;;;;;;5.82;3.83;;;17.50;99.90;;;;;;5104556;28;20097;-49
2022/08/27 05:46:11;;;;;;;4.55;4.00;;;17.50;99.90;;;;;;5112284;28;20052;-50
2022/08/27 05:48:40;;;;;;;5.47;4.05;;;17.70;99.90;;;;;;5111588;28;20046;-49
2022/08/27 05:51:12;;;;;;;4.93;4.03;;;17.60;99.90;;;;;;5111244;27;20047;-48
2022/08/27 05:53:46;;;;;;;6.68;4.38;;;17.50;99.90;;;;;;5111489;28;20118;-49
2022/08/27 05:56:18;;;;;;;5.97;4.15;;;17.60;99.90;;;;;;5112103;28;20059;-49
2022/08/27 06:01:38;;;;;;;4.60;3.80;;;17.60;99.90;;;;;;5111023;27;20036;-48
2022/08/27 06:04:04;;;;;;;4.28;3.75;;;17.60;99.90;;;;;;5111654;28;20043;-49
2022/08/27 06:06:36;;;;;;;5.05;3.80;;;17.50;99.90;;;;;;5111027;28;20438;-48
2022/08/27 06:09:03;;;;;;;4.60;3.80;;;17.60;99.90;;;;;;5111938;28;20043;-49
2022/08/27 06:11:30;;;;;;;4.28;3.80;;;17.60;99.90;;;;;;5111420;28;20048;-48
2022/08/27 06:13:57;;;;;;;5.35;3.90;;;17.60;99.90;;;;;;5111588;28;20043;-49
2022/08/27 06:16:24;;;;;;;7.45;4.60;;;17.50;99.90;;;;;;5108387;28;20047;-49
2022/08/27 06:18:51;;;;;;;6.60;4.20;;;17.60;99.90;;;;;;5109971;28;20035;-49
2022/08/27 06:21:19;;;;;;;5.63;4.07;;;17.60;99.90;;;;;;5111048;28;20400;-48
2022/08/27 06:23:52;;;;;;;4.57;3.90;;;17.70;99.90;;;;;;5104447;28;20044;-49
2022/08/27 06:26:20;;;;;;;11.20;4.20;;;17.70;99.90;;;;;;5101749;28;20044;-51
2022/08/27 06:28:47;;;;;;;4.35;3.53;;;17.90;99.90;;;;;;5110499;28;20039;-49
2022/08/27 06:31:18;;;;;;;4.03;3.50;;;18.00;99.90;;;;;;5107604;28;20039;-49
2022/08/27 06:33:46;;;;;;;4.97;3.75;;;18.20;99.90;;;;;;5110601;28;20048;-48
2022/08/27 06:36:15;;;;;;;4.13;3.42;;;18.30;99.90;;;;;;5106093;28;20046;-50
2022/08/27 06:38:43;;;;;;;8.05;3.58;;;18.40;99.90;;;;;;5111841;28;20051;-48
2022/08/27 06:41:12;;;;;;;6.28;3.85;;;18.60;99.90;;;;;;5106296;28;20043;-49
2022/08/27 06:43:48;;;;;;;7.07;4.32;;;18.70;99.90;;;;;;5102430;28;20096;-49
2022/08/27 06:46:18;;;;;;;6.03;3.75;;;18.70;99.90;;;;;;5104470;28;20044;-49
2022/08/27 06:48:46;;;;;;;4.30;3.90;;;18.70;99.90;;;;;;5111827;28;20035;-49
2022/08/27 06:51:18;;;;;;;5.35;3.60;;;18.70;99.90;;;;;;5106413;28;20051;-49
2022/08/27 06:53:46;;;;;;;5.75;3.20;;;18.80;99.90;;;;;;5110390;28;20056;-49
2022/08/27 06:56:14;;;;;;;6.88;3.85;;;18.90;99.90;;;;;;5107610;28;20044;-48
2022/08/27 06:58:41;;;;;;;5.10;3.35;;;19.10;99.90;;;;;;5100434;28;20104;-49
2022/08/27 07:01:17;;;;;;;9.00;3.72;;;19.20;99.90;;;;;;5099115;28;20504;-49
2022/08/27 07:03:44;;;;;;;4.00;3.60;;;19.40;99.90;;;;;;5100910;28;20032;-49
2022/08/27 07:06:14;;;;;;;6.18;4.43;;;19.50;99.90;;;;;;5102656;28;20044;-49
2022/08/27 07:08:41;;;;;;;6.50;4.32;;;19.70;99.90;;;;;;5099320;28;20116;-51
2022/08/27 07:11:11;;;;;;;7.63;5.30;;;20.00;99.90;;;;;;5105084;28;20066;-49
2022/08/27 07:13:39;;;;;;;9.10;5.57;;;20.10;99.90;;;;;;5104010;28;20051;-48
2022/08/27 07:16:09;;;;;;;11.15;4.93;;;20.30;99.90;;;;;;5102378;28;20667;-53
2022/08/27 07:18:37;;;;;;;9.57;6.22;;;20.60;99.90;;;;;;5102259;28;20039;-48
2022/08/27 07:21:07;;;;;;;9.10;6.32;;;20.90;99.90;;;;;;5103597;28;20035;-48
2022/08/27 07:23:36;;;;;;;8.07;5.72;;;20.80;99.90;;;;;;5100636;28;20052;-49
2022/08/27 07:26:11;;;;;;;6.85;5.45;;;21.00;99.90;;;;;;5102478;28;20376;-48
2022/08/27 07:28:39;;;;;;;9.50;6.00;;;21.00;99.90;;;;;;5101139;28;20040;-48
2022/08/27 07:31:08;;;;;;;9.35;6.13;;;21.20;99.90;;;;;;5102850;28;20052;-49
2022/08/27 07:33:39;;;;;;;7.93;6.07;;;21.30;99.90;;;;;;5099885;28;20047;-49
2022/08/27 07:36:11;;;;;;;7.70;5.97;;;21.40;99.90;;;;;;5103929;28;20457;-49
2022/08/27 07:38:38;;;;;;;5.93;5.32;;;21.70;99.90;;;;;;5099891;28;20115;-50
2022/08/27 07:41:10;;;;;;;7.95;5.47;;;22.10;99.90;;;;;;5098236;28;20040;-51
2022/08/27 07:46:23;;;;;;;6.40;5.13;;;22.50;99.90;;;;;;5114513;28;20054;-52
2022/08/27 07:48:51;;;;;;;6.85;5.50;;;22.80;99.90;;;;;;5114258;28;20046;-49
2022/08/27 07:51:20;;;;;;;6.93;5.72;;;22.70;99.90;;;;;;5113669;28;20089;-50
2022/08/27 07:53:47;;;;;;;7.47;5.63;;;22.80;99.90;;;;;;5113384;28;20047;-49
2022/08/27 07:56:14;;;;;;;8.10;5.07;;;22.90;99.90;;;;;;5114518;28;20487;-49
2022/08/27 07:58:42;;;;;;;7.90;5.53;;;22.60;99.90;;;;;;5111715;28;20115;-49
2022/08/27 08:01:09;;;;;;;7.80;5.18;;;22.50;99.90;;;;;;5091494;28;20044;-49
2022/08/27 08:03:36;;;;;;;6.95;5.30;;;22.50;99.90;;;;;;5112742;28;20583;-48
2022/08/27 08:06:08;;;;;;;5.88;5.07;;;22.50;99.90;;;;;;5106171;28;20043;-48
2022/08/27 08:08:38;;;;;;;7.10;5.13;;;22.50;99.90;;;;;;5107281;28;20483;-49
2022/08/27 08:11:10;;;;;;;9.10;5.32;;;22.50;99.90;;;;;;5103527;27;20036;-49
2022/08/27 08:13:37;;;;;;;6.60;5.60;;;22.50;99.90;;;;;;5104740;28;20040;-50
2022/08/27 08:16:05;;;;;;;9.07;5.30;;;22.50;99.90;;;;;;5105492;27;20047;-49
2022/08/27 08:18:33;;;;;;;6.63;5.20;;;22.50;99.90;;;;;;5109665;28;20483;-54
2022/08/27 08:21:02;;;;;;;8.70;5.25;;;22.40;99.90;;;;;;5112893;28;20435;-51
2022/08/27 08:23:31;;;;;;;11.27;5.85;;;22.30;99.90;;;;;;5112768;28;20031;-49
2022/08/27 08:25:59;;;;;;;8.35;5.60;;;22.20;99.90;;;;;;5112698;28;20032;-49
2022/08/27 08:28:27;;;;;;;9.50;5.90;;;22.20;99.90;;;;;;5112888;28;20050;-48
2022/08/27 08:30:56;;;;;;;6.70;5.53;;;22.10;99.90;;;;;;5113123;28;20423;-49
2022/08/27 08:33:23;;;;;;;7.72;5.90;;;22.10;99.90;;;;;;5106110;27;21029;-48
2022/08/27 08:35:50;;;;;;;8.35;5.50;;;22.10;99.90;;;;;;5112389;28;20040;-47
2022/08/27 08:38:17;;;;;;;10.32;5.60;;;22.10;99.90;;;;;;5112289;28;20403;-48
2022/08/27 08:40:49;;;;;;;9.25;5.05;;;22.00;99.90;;;;;;5109801;27;20051;-47
2022/08/27 08:43:38;;;;;;;9.48;5.85;;;22.00;99.90;;;;;;5091161;28;20510;-47
2022/08/27 08:46:11;;;;;;;5.07;4.22;;;21.90;99.90;;;;;;5110617;28;20519;-50
2022/08/27 08:48:44;;;;;;;6.15;3.90;;;21.90;99.90;;;;;;5101183;28;20040;-49
2022/08/27 08:51:35;;;;;;;6.40;4.30;;;22.00;99.90;;;;;;5109421;28;20044;-50
2022/08/27 08:54:05;;;;;;;6.18;4.20;;;22.00;99.90;;;;;;5107235;28;20035;-48
2022/08/27 08:56:53;;;;;;;5.00;4.05;;;22.00;99.90;;;;;;5105853;27;20055;-49
2022/08/27 08:59:20;;;;;;;;;;;21.90;99.90;;;;;;5110209;28;20047;-48
2022/08/27 09:01:49;;;;;;;4.30;3.90;;;21.90;99.90;;;;;;5107196;28;19919;-52
2022/08/27 09:04:15;;;;;;;8.52;4.50;;;21.80;99.90;;;;;;5105529;28;20040;-51
2022/08/27 09:06:51;;;;;;;7.25;4.05;;;21.60;99.90;;;;;;5111633;28;20043;-48
2022/08/27 09:09:24;;;;;;;6.40;3.90;;;21.50;99.90;;;;;;5113066;28;20035;-48
2022/08/27 09:12:14;;;;;;;4.07;3.40;;;21.30;99.90;;;;;;5107090;28;20496;-49
2022/08/27 09:15:12;;;;;;;4.35;3.75;;;21.30;99.90;;;;;;5104055;28;20539;-53
2022/08/27 09:17:44;;;;;;;3.53;2.95;;;21.20;99.90;;;;;;5113431;28;20085;-50
2022/08/27 09:20:12;;;;;;;7.20;3.00;;;21.00;99.90;;;;;;5112643;28;20058;-47
2022/08/27 09:23:03;;;;;;;4.78;3.72;;;20.90;99.90;;;;;;5104460;28;20085;-48
2022/08/27 09:25:41;;;;;;;4.13;3.30;;;20.80;99.90;;;;;;5110604;28;20032;-48
2022/08/27 09:31:05;;;;;;;5.50;3.75;;;20.60;99.90;;;;;;5116205;27;20041;-47
2022/08/27 09:33:32;;;;;;;6.65;4.20;;;20.60;99.90;;;;;;5104285;28;20039;-50
2022/08/27 09:36:19;;;;;;;5.22;3.85;;;20.60;99.90;;;;;;5110448;28;20040;-50
2022/08/27 09:38:57;;;;;;;3.72;3.33;;;20.60;99.90;;;;;;5112525;28;20039;-48
2022/08/27 09:41:31;;;;;;;4.95;3.60;;;20.60;99.90;;;;;;5121959;22;20044;-51
2022/08/27 09:44:15;;;;;;;4.93;3.45;;;20.60;99.90;;;;;;5093685;28;20091;-49
2022/08/27 09:47:02;;;;;;;6.80;3.10;;;20.70;99.90;;;;;;5091741;28;20056;-49
2022/08/27 09:49:30;;;;;;;;;;;20.60;99.90;;;;;;5103049;28;20400;-51
2022/08/27 09:51:57;;;;;;;4.95;3.67;;;20.60;99.90;;;;;;5104234;28;19928;-51
2022/08/27 09:54:41;;;;;;;;;;;20.60;99.90;;;;;;5089062;28;20043;-50
2022/08/27 09:57:10;;;;;;;4.75;3.38;;;20.70;99.90;;;;;;5082769;28;19926;-50
2022/08/27 09:59:42;;;;;;;5.95;3.72;;;20.80;99.90;;;;;;5084196;28;20047;-49
2022/08/27 10:02:18;;;;;;;6.28;3.70;;;20.80;99.90;;;;;;5090758;28;20040;-50
2022/08/27 10:04:51;;;;;;;4.47;3.30;;;20.90;99.90;;;;;;5085654;28;20044;-50
2022/08/27 10:07:51;;;;;;;6.43;3.75;;;21.00;99.90;;;;;;5085073;28;20043;-49
2022/08/27 10:10:46;;;;;;;4.93;2.65;;;21.10;99.90;;;;;;5087618;28;20040;-48
2022/08/27 10:13:24;;;;;;;6.40;3.30;;;21.30;99.90;;;;;;5086525;28;20052;-49
2022/08/27 10:16:20;;;;;;;7.93;4.10;;;21.40;99.90;;;;;;5085424;28;20048;-50
2022/08/27 10:18:47;;;;;;;4.15;3.33;;;21.40;99.90;;;;;;5089367;28;20055;-48
2022/08/27 10:21:34;;;;;;;5.80;3.63;;;21.50;99.90;;;;;;5088336;28;20044;-49
2022/08/27 10:24:47;;;;;;;5.97;4.13;;;21.60;99.90;;;;;;5085438;28;20036;-51
2022/08/27 10:27:36;;;;;;;5.53;3.38;;;21.70;99.90;;;;;;5082370;28;20044;-50
2022/08/27 10:30:19;;;;;;;7.32;3.40;;;21.80;99.90;;;;;;5089096;28;20032;-50
2022/08/27 10:32:55;;;;;;;5.43;4.13;;;21.90;99.90;;;;;;5086472;28;20052;-51
2022/08/27 10:35:35;;;;;;;6.95;3.67;;;22.00;99.90;;;;;;5086463;28;20036;-49
2022/08/27 10:38:41;;;;;;;4.07;3.53;;;22.20;99.90;;;;;;5081277;28;20070;-49
2022/08/27 10:41:27;;;;;;;5.10;3.42;;;22.30;99.90;;;;;;5088055;28;20063;-49
2022/08/27 10:44:16;;;;;;;4.13;3.47;;;22.40;99.90;;;;;;5088613;28;20036;-49
2022/08/27 10:47:31;;;;;;;4.38;3.10;;;22.40;99.90;;;;;;5088714;28;20040;-49
2022/08/27 10:50:10;;;;;;;4.40;3.17;;;22.50;99.90;;;;;;5070729;28;20045;-50
2022/08/27 10:52:40;;;;;;;3.83;3.47;;;22.70;99.90;;;;;;5085095;28;20511;-48
2022/08/27 10:55:20;;;;;;;4.22;3.20;;;22.90;99.90;;;;;;5090074;28;20055;-49
2022/08/27 10:57:53;;;;;;;6.32;3.42;;;22.80;99.90;;;;;;5087018;28;20048;-48
2022/08/27 11:00:47;;;;;;;5.18;3.22;;;22.80;99.90;;;;;;5087754;28;20083;-50
2022/08/27 11:03:55;;;;;;;5.47;3.50;;;22.70;99.90;;;;;;5086749;28;20048;-50
2022/08/27 11:06:31;;;;;;;5.65;3.22;;;22.60;99.90;;;;;;5078746;28;20052;-49
2022/08/27 11:09:04;;;;;;;4.15;3.55;;;22.50;99.90;;;;;;5088583;28;20078;-49
2022/08/27 11:11:40;;;;;;;4.00;3.30;;;22.50;99.90;;;;;;5088600;28;20071;-49
2022/08/27 11:14:30;;;;;;;5.68;3.22;;;22.60;99.90;;;;;;5090837;28;20431;-50
2022/08/27 11:17:03;;;;;;;3.65;2.97;;;22.60;99.90;;;;;;5080529;28;20044;-51
2022/08/27 11:19:55;;;;;;;6.38;3.63;;;22.80;99.90;;;;;;5074849;28;20048;-49
2022/08/27 11:22:34;;;;;;;5.00;3.67;;;22.80;99.90;;;;;;5066015;28;20049;-49
2022/08/27 11:25:10;;;;;;;4.00;3.20;;;22.90;99.90;;;;;;5074275;28;20041;-50
2022/08/27 11:27:39;;;;;;;4.95;3.30;;;22.80;99.90;;;;;;5086255;28;20531;-51
2022/08/27 11:30:15;;;;;;;6.43;3.38;;;22.90;99.90;;;;;;5090708;28;20048;-49
2022/08/27 11:33:07;;;;;;;5.22;3.58;;;23.10;99.90;;;;;;5089672;28;20040;-49
2022/08/27 11:36:12;;;;;;;6.90;3.08;;;23.20;99.90;;;;;;5086097;28;20516;-48
2022/08/27 11:39:00;;;;;;;4.88;3.80;;;23.50;99.90;;;;;;5090516;28;20388;-49
2022/08/27 11:41:48;;;;;;;4.80;3.30;;;23.50;99.90;;;;;;5086814;28;20404;-49
2022/08/27 11:44:19;;;;;;;3.60;3.30;;;23.60;99.90;;;;;;5090256;28;20040;-51
2022/08/27 11:46:50;;;;;;;7.45;3.28;;;23.70;99.90;;;;;;5094599;28;20059;-49
2022/08/27 11:49:35;;;;;;;4.50;3.00;;;23.70;99.90;;;;;;5093600;28;20032;-50
2022/08/27 11:52:06;;;;;;;5.93;3.20;;;23.80;99.90;;;;;;5089689;28;20047;-50
2022/08/27 11:54:45;;;;;;;6.60;3.80;;;23.90;99.90;;;;;;5073654;28;20044;-49
2022/08/27 11:57:27;;;;;;;4.47;3.33;;;24.10;99.90;;;;;;5064852;28;20044;-49
2022/08/27 11:59:54;;;;;;;3.38;3.00;;;24.30;99.90;;;;;;5078810;28;20048;-49
2022/08/27 12:02:24;;;;;;;;;;;24.40;99.90;;;;;;5074105;28;20515;-49
2022/08/27 12:04:56;;;;;;;5.25;2.88;;;24.30;99.90;;;;;;5082879;28;19920;-50
2022/08/27 12:07:29;;;;;;;4.28;3.30;;;24.30;99.90;;;;;;5073857;28;20480;-49
2022/08/27 12:09:56;;;;;;;4.40;2.88;;;24.20;99.90;;;;;;5073761;28;20037;-52
2022/08/27 12:13:01;;;;;;;6.65;3.10;;;24.30;99.90;;;;;;5074770;28;20048;-50
2022/08/27 12:15:46;;;;;;;3.58;3.15;;;24.40;99.90;;;;;;5074529;28;20501;-49
2022/08/27 12:18:35;;;;;;;3.92;2.92;;;24.50;99.90;;;;;;5073613;28;20378;-50
2022/08/27 12:21:18;;;;;;;4.07;3.22;;;24.40;99.90;;;;;;5073767;28;20052;-50
2022/08/27 12:24:00;;;;;;;4.75;3.78;;;24.30;99.90;;;;;;5079193;28;20064;-48
2022/08/27 12:26:38;;;;;;;4.50;3.28;;;24.10;99.90;;;;;;5073321;28;20044;-50
2022/08/27 12:29:23;;;;;;;3.97;3.25;;;24.00;99.90;;;;;;5079209;28;20097;-49
2022/08/27 12:32:23;;;;;;;3.60;3.22;;;24.10;99.90;;;;;;5084751;28;20109;-49
2022/08/27 12:34:59;;;;;;;5.35;3.72;;;24.10;99.90;;;;;;5083769;28;20048;-49
2022/08/27 12:37:30;;;;;;;3.90;3.38;;;24.20;99.90;;;;;;5088897;28;20048;-49
2022/08/27 12:40:00;;;;;;;5.07;3.47;;;24.30;99.90;;;;;;5091468;28;20056;-48
2022/08/27 12:42:27;;;;;;;5.43;3.47;;;24.30;99.90;;;;;;5091087;28;20135;-50
2022/08/27 12:44:56;;;;;;;4.28;3.75;;;24.30;99.90;;;;;;5090526;28;20040;-50
2022/08/27 12:47:23;;;;;;;7.90;3.30;;;24.30;99.90;;;;;;5087948;28;20055;-48
2022/08/27 12:49:56;;;;;;;7.65;3.70;;;24.40;99.90;;;;;;5090779;28;20039;-50
2022/08/27 12:52:51;;;;;;;4.03;3.22;;;24.30;99.90;;;;;;5087261;28;20473;-49
2022/08/27 12:55:54;;;;;;;6.85;3.63;;;24.50;99.90;;;;;;5088708;28;20499;-50
2022/08/27 12:58:36;;;;;;;6.97;3.58;;;24.40;99.90;;;;;;5088328;28;20040;-49
2022/08/27 13:01:32;;;;;;;4.80;3.38;;;24.40;99.90;;;;;;5088908;28;20032;-50
2022/08/27 13:04:00;;;;;;;3.80;3.50;;;24.50;99.90;;;;;;5088538;28;20432;-49
2022/08/27 13:06:26;;;;;;;;;;;24.40;99.90;;;;;;5091850;28;20044;-51
2022/08/27 13:08:56;;;;;;;5.78;3.63;;;24.40;99.90;;;;;;5087802;28;19924;-49
2022/08/27 13:11:28;;;;;;;5.13;4.15;;;24.50;99.90;;;;;;5081460;28;20048;-50
2022/08/27 13:14:18;;;;;;;5.22;3.92;;;24.50;99.90;;;;;;5091413;28;20052;-48
2022/08/27 13:16:50;;;;;;;5.22;3.55;;;24.60;99.90;;;;;;5084849;28;20106;-51
2022/08/27 13:19:28;;;;;;;4.22;3.78;;;24.60;99.90;;;;;;5074712;28;20496;-48
2022/08/27 13:21:56;;;;;;;5.40;3.80;;;24.60;99.90;;;;;;5072114;28;20106;-48
2022/08/27 13:24:33;;;;;;;7.55;6.03;;;24.40;99.90;;;;;;5071419;28;20041;-50
2022/08/27 13:27:03;;;;;;;5.07;4.28;;;24.40;99.90;;;;;;5072320;28;20400;-49